Weather at Alicante International Airport

Public forecast

Using degrees Celsius for public forecast. Weather courtesy of forecast.io.

Current aviation weather report (METAR) for Alicante International Airport

Retrieved 2021/06/20 01:00 UTC (9 minutes ago):

LEAL 200100Z 32004KT 280V350 9999 FEW019 21/19 Q1011 NOSIG

Aviation forecast (TAF) for Alicante International Airport

Retrieved 2021-06-20 00:27 UTC (42 minutes ago):

TAF TAF LEAL 192300Z 2000/2024 VRB04KT 9999 SCT020 TX29/2012Z TN19/2006Z BECMG 2006/2008 30012KT BECMG 2011/2013 18017KT TEMPO 2012/2019 18018G28KT